Time;durP1;ratioP1;P1;durP2;ratioP2;P2;SDS_P1;SDS_P2;PMS_P1;PMS_P2;Temp;Humidity;BMP_temperature;BMP_pressure;BME280_temperature;BME280_humidity;BME280_pressure;Samples;Min_cycle;Max_cycle;Signal;HPM_P1;HPM_P2
2022/11/08 00:01:35;;;;;;;5.60;3.20;;;12.70;99.90;;;;;;5091966;28;20773;-46
2022/11/08 00:04:05;;;;;;;6.30;3.23;;;12.70;99.90;;;;;;5092185;28;20442;-46
2022/11/08 00:14:46;;;;;;;6.87;3.20;;;12.80;99.90;;;;;;5095974;28;20457;-46
2022/11/08 00:17:13;;;;;;;6.93;2.70;;;12.50;99.90;;;;;;5095950;28;20431;-47
2022/11/08 00:19:42;;;;;;;7.90;3.43;;;11.80;99.90;;;;;;5095600;28;20435;-47
2022/11/08 00:22:09;;;;;;;7.97;3.20;;;12.90;99.90;;;;;;5095869;28;20404;-46
2022/11/08 00:24:35;;;;;;;6.00;2.80;;;12.50;99.90;;;;;;5095898;28;20822;-46
2022/11/08 00:27:04;;;;;;;9.30;3.80;;;12.20;99.90;;;;;;5095719;28;20917;-47
2022/11/08 00:29:31;;;;;;;9.40;3.33;;;12.70;99.90;;;;;;5095250;28;20433;-46
2022/11/08 00:31:57;;;;;;;6.13;3.10;;;12.20;99.90;;;;;;5095459;28;20565;-49
2022/11/08 00:34:24;;;;;;;5.77;2.93;;;12.20;99.90;;;;;;5077110;28;20451;-47
2022/11/08 00:36:53;;;;;;;3.70;3.00;;;12.40;99.90;;;;;;5095523;28;20439;-47
2022/11/08 00:39:20;;;;;;;4.73;2.80;;;12.30;99.90;;;;;;5095083;28;20428;-47
2022/11/08 00:41:46;;;;;;;11.50;2.83;;;12.50;99.90;;;;;;5095291;28;20924;-47
2022/11/08 00:44:13;;;;;;;7.80;3.00;;;12.40;99.90;;;;;;5095266;28;20439;-48
2022/11/08 00:46:40;;;;;;;6.40;2.87;;;12.30;99.90;;;;;;5095365;28;20778;-47
2022/11/08 00:49:07;;;;;;;8.03;3.30;;;12.50;99.90;;;;;;5076835;28;20446;-47
2022/11/08 00:51:34;;;;;;;8.93;3.77;;;11.70;99.90;;;;;;5095213;28;20571;-47
2022/11/08 00:54:02;;;;;;;6.40;3.20;;;11.90;99.90;;;;;;5095253;28;20978;-46
2022/11/08 00:56:29;;;;;;;10.13;2.93;;;12.60;99.90;;;;;;5094887;28;20458;-48
2022/11/08 00:58:55;;;;;;;6.73;3.10;;;12.30;99.90;;;;;;5094518;28;20443;-48
2022/11/08 01:01:22;;;;;;;7.63;3.47;;;12.50;99.90;;;;;;5094720;28;20937;-48
2022/11/08 01:03:49;;;;;;;5.30;2.87;;;12.40;99.90;;;;;;5094904;28;20470;-48
2022/11/08 01:06:17;;;;;;;7.67;3.50;;;12.20;99.90;;;;;;5076555;28;21005;-48
2022/11/08 01:08:44;;;;;;;7.60;3.57;;;12.20;99.90;;;;;;5094258;28;20440;-48
2022/11/08 01:11:14;;;;;;;11.63;3.37;;;12.20;99.90;;;;;;5094555;28;20435;-47
2022/11/08 01:13:42;;;;;;;6.23;2.80;;;12.30;99.90;;;;;;5094671;28;20406;-48
2022/11/08 01:16:10;;;;;;;8.00;3.30;;;12.00;99.90;;;;;;5094508;28;20464;-48
2022/11/08 01:18:38;;;;;;;8.20;3.27;;;12.20;99.90;;;;;;5094229;28;20437;-48
2022/11/08 01:21:05;;;;;;;6.40;3.30;;;12.70;99.90;;;;;;5094465;28;20803;-48
2022/11/08 01:23:32;;;;;;;5.63;3.17;;;12.30;99.90;;;;;;5094118;28;20958;-47
2022/11/08 01:26:05;;;;;;;5.43;2.57;;;12.30;99.90;;;;;;5093959;28;20970;-48
2022/11/08 01:28:33;;;;;;;4.40;3.00;;;11.80;99.90;;;;;;5075940;28;20460;-47
2022/11/08 01:31:04;;;;;;;6.13;2.90;;;12.60;99.90;;;;;;5094252;28;20458;-47
2022/11/08 01:33:30;;;;;;;8.77;3.50;;;12.10;99.90;;;;;;5094352;28;20436;-47
2022/11/08 01:35:57;;;;;;;8.17;3.53;;;12.30;99.90;;;;;;5094166;28;20469;-47
2022/11/08 01:38:24;;;;;;;6.80;2.93;;;12.80;99.90;;;;;;5094273;28;20805;-47
2022/11/08 01:40:50;;;;;;;3.57;2.50;;;12.30;99.90;;;;;;5076034;28;20490;-46
2022/11/08 01:43:36;;;;;;;6.77;2.90;;;12.20;99.90;;;;;;5094163;28;20432;-47
2022/11/08 01:46:33;;;;;;;12.23;3.53;;;12.00;99.90;;;;;;5093913;28;20481;-47
2022/11/08 01:49:15;;;;;;;7.60;3.03;;;12.10;99.90;;;;;;5093792;28;20951;-47
2022/11/08 01:51:46;;;;;;;6.53;3.20;;;12.10;99.90;;;;;;5093868;28;20596;-47
2022/11/08 01:54:18;;;;;;;4.80;3.63;;;12.00;99.90;;;;;;5093991;28;20452;-47
2022/11/08 01:56:45;;;;;;;9.67;3.57;;;11.90;99.90;;;;;;5093868;28;20814;-47
2022/11/08 01:59:16;;;;;;;7.13;2.90;;;12.00;99.90;;;;;;5093794;28;20431;-47
2022/11/08 02:01:43;;;;;;;6.17;2.83;;;12.00;99.90;;;;;;5093646;28;20490;-47
2022/11/08 02:04:12;;;;;;;9.10;3.40;;;12.00;99.90;;;;;;5093781;28;20449;-47
2022/11/08 02:06:40;;;;;;;7.27;2.93;;;12.00;99.90;;;;;;5093707;28;20436;-47
2022/11/08 02:09:10;;;;;;;6.50;3.13;;;12.40;99.90;;;;;;5093192;28;20432;-48
2022/11/08 02:11:38;;;;;;;5.93;3.10;;;12.60;99.90;;;;;;5093573;28;20777;-48
2022/11/08 02:14:04;;;;;;;5.43;2.77;;;12.80;99.90;;;;;;5093492;28;20424;-48
2022/11/08 02:16:32;;;;;;;5.57;3.30;;;12.20;99.90;;;;;;5093343;28;20434;-47
2022/11/08 02:18:59;;;;;;;6.50;3.20;;;12.00;99.90;;;;;;5093051;28;20449;-48
2022/11/08 02:21:29;;;;;;;7.40;3.40;;;12.10;99.90;;;;;;5093303;28;20438;-48
2022/11/08 02:24:00;;;;;;;5.53;3.00;;;12.50;99.90;;;;;;5093328;28;20794;-47
2022/11/08 02:26:29;;;;;;;4.30;2.40;;;12.50;99.90;;;;;;5093187;28;20459;-48
2022/11/08 02:28:57;;;;;;;10.03;3.53;;;12.20;99.90;;;;;;5092793;28;20433;-48
2022/11/08 02:31:24;;;;;;;6.37;3.00;;;12.30;99.90;;;;;;5093323;28;20431;-48
2022/11/08 02:33:51;;;;;;;5.30;2.90;;;12.50;99.90;;;;;;5093846;28;20913;-48
2022/11/08 02:36:21;;;;;;;7.20;3.97;;;12.40;99.90;;;;;;5092675;28;20458;-47
2022/11/08 02:38:51;;;;;;;6.53;2.70;;;11.90;99.90;;;;;;5092609;28;20460;-47
2022/11/08 02:41:19;;;;;;;4.10;2.67;;;12.30;99.90;;;;;;5092966;28;20753;-48
2022/11/08 02:43:46;;;;;;;7.60;2.57;;;12.70;99.90;;;;;;5093091;28;20810;-47
2022/11/08 02:46:13;;;;;;;5.70;3.07;;;12.40;99.90;;;;;;5092866;28;20463;-48
2022/11/08 02:48:39;;;;;;;8.57;3.50;;;12.40;99.90;;;;;;5092544;28;20437;-48
2022/11/08 02:51:06;;;;;;;8.43;3.90;;;12.30;99.90;;;;;;5092824;28;20940;-48
2022/11/08 02:53:33;;;;;;;6.17;3.10;;;12.30;99.90;;;;;;5092688;28;20484;-48
2022/11/08 02:55:59;;;;;;;7.67;3.00;;;12.50;99.90;;;;;;5092812;28;20463;-48
2022/11/08 02:58:27;;;;;;;7.87;3.20;;;12.40;99.90;;;;;;5092365;28;20414;-47
2022/11/08 03:00:54;;;;;;;5.93;3.47;;;12.90;99.90;;;;;;5092683;28;20397;-48
2022/11/08 03:03:21;;;;;;;9.37;4.27;;;12.60;99.90;;;;;;5092603;28;20416;-49
2022/11/08 03:05:47;;;;;;;9.47;3.27;;;12.40;99.90;;;;;;5092615;28;20486;-48
2022/11/08 03:08:14;;;;;;;12.40;3.60;;;12.10;99.90;;;;;;5092648;28;20450;-48
2022/11/08 03:10:40;;;;;;;6.53;2.87;;;12.20;99.90;;;;;;5092277;28;20416;-48
2022/11/08 03:13:07;;;;;;;7.07;3.23;;;12.00;99.90;;;;;;5092337;28;20976;-48
2022/11/08 03:15:35;;;;;;;9.10;3.77;;;12.50;99.90;;;;;;5092296;28;20456;-47
2022/11/08 03:18:02;;;;;;;6.03;3.37;;;12.20;99.90;;;;;;5092414;28;20439;-47
2022/11/08 03:20:29;;;;;;;8.10;3.47;;;12.50;99.90;;;;;;5091948;28;20929;-47
2022/11/08 03:22:59;;;;;;;5.93;3.57;;;11.80;99.90;;;;;;5092281;28;20802;-47
2022/11/08 03:25:26;;;;;;;9.03;3.70;;;12.50;99.90;;;;;;5092251;28;20457;-48
2022/11/08 03:27:52;;;;;;;5.47;3.20;;;12.10;99.90;;;;;;5092583;28;20418;-47
2022/11/08 03:30:19;;;;;;;8.60;3.10;;;12.10;99.90;;;;;;5091752;28;20419;-45
2022/11/08 03:32:48;;;;;;;9.93;3.23;;;12.20;99.90;;;;;;5092080;28;20840;-47
2022/11/08 03:35:15;;;;;;;5.60;2.73;;;12.30;99.90;;;;;;5092017;28;20549;-47
2022/11/08 03:37:49;;;;;;;6.43;3.20;;;12.00;99.90;;;;;;5092102;28;20976;-46
2022/11/08 03:40:16;;;;;;;5.73;2.90;;;12.20;99.90;;;;;;5091892;28;20865;-47
2022/11/08 03:42:43;;;;;;;8.77;2.97;;;12.20;99.90;;;;;;5092008;28;20494;-47
2022/11/08 03:45:10;;;;;;;7.37;3.30;;;12.70;99.90;;;;;;5092053;28;20450;-47
2022/11/08 03:47:38;;;;;;;12.80;4.70;;;12.20;99.90;;;;;;5093625;28;20856;-46
2022/11/08 03:50:07;;;;;;;5.50;3.97;;;12.00;99.90;;;;;;5077877;28;20815;-48
2022/11/08 03:52:39;;;;;;;7.70;3.23;;;12.10;99.90;;;;;;5096103;28;20507;-48
2022/11/08 03:55:08;;;;;;;3.73;2.60;;;12.30;99.90;;;;;;5096200;28;20430;-47
2022/11/08 03:57:34;;;;;;;6.00;3.50;;;12.20;99.90;;;;;;5096401;28;20443;-47
2022/11/08 04:00:01;;;;;;;5.30;3.40;;;12.00;99.90;;;;;;5095857;28;20766;-47
2022/11/08 04:02:27;;;;;;;10.40;3.70;;;12.60;99.90;;;;;;5096181;28;20429;-47
2022/11/08 04:04:54;;;;;;;12.33;3.43;;;12.10;99.90;;;;;;5096102;28;20451;-47
2022/11/08 04:07:22;;;;;;;6.90;3.33;;;12.20;99.90;;;;;;5095838;28;20432;-47
2022/11/08 04:09:49;;;;;;;14.00;3.87;;;11.80;99.90;;;;;;5095309;28;20438;-47
2022/11/08 04:15:15;;;;;;;12.00;4.07;;;11.60;99.90;;;;;;5095819;28;20467;-47
2022/11/08 04:23:13;;;;;;;11.03;6.27;;;11.60;99.90;;;;;;5095738;28;20435;-47
2022/11/08 04:25:39;;;;;;;9.47;5.60;;;11.80;99.90;;;;;;5095610;28;20461;-47
2022/11/08 04:28:06;;;;;;;11.20;5.23;;;11.90;99.90;;;;;;5095622;28;20818;-47
2022/11/08 04:30:33;;;;;;;8.93;4.70;;;11.20;99.90;;;;;;5095240;28;20793;-48
2022/11/08 04:33:00;;;;;;;9.00;4.17;;;11.60;99.90;;;;;;5095603;28;20473;-47
2022/11/08 04:35:27;;;;;;;7.17;4.00;;;11.60;99.90;;;;;;5117838;22;20576;-48
2022/11/08 04:37:57;;;;;;;8.50;4.20;;;11.30;99.90;;;;;;5094758;28;20935;-49
2022/11/08 04:40:26;;;;;;;6.10;3.43;;;11.70;99.90;;;;;;5094238;28;20449;-49
2022/11/08 04:42:52;;;;;;;4.20;3.80;;;11.10;99.90;;;;;;5094402;28;20436;-49
2022/11/08 04:45:19;;;;;;;9.13;3.60;;;11.90;99.90;;;;;;5094124;28;20873;-49
2022/11/08 04:47:46;;;;;;;4.53;3.37;;;11.50;99.90;;;;;;5076031;28;20438;-49
2022/11/08 04:50:13;;;;;;;6.90;3.90;;;11.40;99.90;;;;;;5094034;28;20486;-48
2022/11/08 04:52:39;;;;;;;8.83;5.00;;;11.90;99.90;;;;;;5094471;28;20448;-49
2022/11/08 04:55:07;;;;;;;7.27;4.03;;;11.40;99.90;;;;;;5094703;28;20454;-49
2022/11/08 04:57:35;;;;;;;7.17;4.50;;;11.40;99.90;;;;;;5094396;28;20408;-49
2022/11/08 05:00:02;;;;;;;9.20;5.07;;;11.80;99.90;;;;;;5093110;28;20440;-49
2022/11/08 05:02:29;;;;;;;6.93;4.47;;;11.20;99.90;;;;;;5094103;28;20519;-48
2022/11/08 05:04:56;;;;;;;5.97;4.13;;;11.20;99.90;;;;;;5094167;28;20455;-49
2022/11/08 05:07:23;;;;;;;9.97;5.10;;;11.80;99.90;;;;;;5094039;28;20828;-50
2022/11/08 05:09:49;;;;;;;12.70;4.87;;;11.40;99.90;;;;;;5093510;28;20435;-48
2022/11/08 05:12:16;;;;;;;7.57;4.90;;;11.70;99.90;;;;;;5093648;28;20446;-49
2022/11/08 05:14:44;;;;;;;11.13;5.07;;;11.40;99.90;;;;;;5093899;28;20427;-49
2022/11/08 05:17:10;;;;;;;10.40;5.63;;;11.20;99.90;;;;;;5093858;28;20434;-48
2022/11/08 05:25:02;;;;;;;9.47;5.27;;;11.30;99.90;;;;;;5093613;28;20996;-49
2022/11/08 05:27:29;;;;;;;11.70;5.67;;;11.70;99.90;;;;;;5093781;28;20526;-50
2022/11/08 05:29:57;;;;;;;8.57;5.63;;;11.10;99.90;;;;;;5093199;28;20919;-49
2022/11/08 05:32:23;;;;;;;6.90;4.90;;;11.30;99.90;;;;;;5093747;28;20441;-49
2022/11/08 05:34:50;;;;;;;9.23;6.50;;;11.50;99.90;;;;;;5093167;28;21009;-48
2022/11/08 05:37:17;;;;;;;10.63;5.50;;;11.30;99.90;;;;;;5093051;28;20758;-48
2022/11/08 05:39:44;;;;;;;7.83;5.33;;;11.10;99.90;;;;;;5092727;28;20424;-50
2022/11/08 05:42:11;;;;;;;11.63;5.40;;;11.20;99.90;;;;;;5093058;28;20440;-48
2022/11/08 05:44:37;;;;;;;10.67;5.20;;;10.80;99.90;;;;;;5092901;28;20430;-50
2022/11/08 05:47:05;;;;;;;10.43;4.30;;;11.10;99.90;;;;;;5093591;28;20545;-48
2022/11/08 05:49:32;;;;;;;9.50;5.33;;;11.20;99.90;;;;;;5092962;28;20427;-48
2022/11/08 05:51:58;;;;;;;10.70;5.03;;;10.90;99.90;;;;;;5093072;28;20439;-48
2022/11/08 05:54:25;;;;;;;10.90;5.60;;;11.20;99.90;;;;;;5092712;28;20481;-49
2022/11/08 05:56:51;;;;;;;10.63;5.10;;;11.00;99.90;;;;;;5074450;28;20514;-50
2022/11/08 05:59:18;;;;;;;13.87;5.50;;;11.20;99.90;;;;;;5092965;28;20923;-50
2022/11/08 06:01:44;;;;;;;11.57;6.07;;;11.00;99.90;;;;;;5092931;28;20411;-48
2022/11/08 06:04:12;;;;;;;8.20;5.27;;;11.30;99.90;;;;;;5092946;28;20437;-49
2022/11/08 06:06:39;;;;;;;9.33;6.13;;;11.60;99.90;;;;;;5092998;28;20451;-50
2022/11/08 06:09:06;;;;;;;10.60;5.70;;;11.00;99.90;;;;;;5092122;28;20799;-51
2022/11/08 06:11:32;;;;;;;9.33;6.20;;;11.10;99.90;;;;;;5092665;28;20419;-50
2022/11/08 06:13:59;;;;;;;8.33;5.83;;;11.50;99.90;;;;;;5092457;28;20478;-48
2022/11/08 06:16:25;;;;;;;7.33;5.13;;;11.10;99.90;;;;;;5092255;28;20455;-50
2022/11/08 06:18:52;;;;;;;7.80;5.20;;;11.00;99.90;;;;;;5092225;28;20966;-49
2022/11/08 06:21:21;;;;;;;7.70;5.90;;;11.20;99.90;;;;;;5092245;28;20430;-48
2022/11/08 06:23:52;;;;;;;13.53;6.63;;;11.30;99.90;;;;;;5092249;28;20433;-49
2022/11/08 06:26:18;;;;;;;8.30;5.20;;;10.80;99.90;;;;;;5092390;28;20454;-50
2022/11/08 06:28:45;;;;;;;12.93;5.87;;;11.00;99.90;;;;;;5091941;28;20799;-50
2022/11/08 06:31:11;;;;;;;10.80;5.67;;;11.00;99.90;;;;;;5092196;28;20449;-50
2022/11/08 06:33:38;;;;;;;15.30;5.67;;;11.00;99.90;;;;;;5091656;28;20477;-49
2022/11/08 06:36:06;;;;;;;10.37;5.90;;;10.30;99.90;;;;;;5091875;28;20588;-49
2022/11/08 06:38:34;;;;;;;10.93;5.50;;;10.90;99.90;;;;;;5091195;28;20843;-49
2022/11/08 06:41:01;;;;;;;13.60;6.27;;;10.80;99.90;;;;;;5091699;28;20445;-49
2022/11/08 06:43:28;;;;;;;15.83;5.17;;;11.00;99.90;;;;;;5072612;28;20530;-49
2022/11/08 06:45:55;;;;;;;9.43;5.30;;;10.80;99.90;;;;;;5091468;28;20839;-49
2022/11/08 06:48:21;;;;;;;9.60;5.00;;;11.00;99.90;;;;;;5091624;28;20404;-48
2022/11/08 06:50:48;;;;;;;8.60;5.83;;;10.80;99.90;;;;;;5091590;28;20437;-49
2022/11/08 06:53:14;;;;;;;9.90;5.20;;;10.50;99.90;;;;;;5091585;28;20474;-49
2022/11/08 06:55:42;;;;;;;9.10;5.97;;;10.90;99.90;;;;;;5091272;28;20449;-49
2022/11/08 06:58:10;;;;;;;8.33;5.40;;;10.70;99.90;;;;;;5091315;28;20433;-49
2022/11/08 07:00:37;;;;;;;12.67;6.60;;;10.60;99.90;;;;;;5091042;28;20438;-51
2022/11/08 07:03:04;;;;;;;11.27;6.93;;;10.80;99.90;;;;;;5091502;28;20418;-48
2022/11/08 07:05:32;;;;;;;12.77;6.60;;;10.90;99.90;;;;;;5091625;28;20428;-49
2022/11/08 07:08:00;;;;;;;11.97;6.93;;;11.10;99.90;;;;;;5091586;28;20799;-48
2022/11/08 07:10:28;;;;;;;13.93;6.03;;;10.80;99.90;;;;;;5090633;28;20822;-48
2022/11/08 07:13:00;;;;;;;12.57;6.73;;;10.80;99.90;;;;;;5091147;28;20432;-50
2022/11/08 07:15:27;;;;;;;9.87;5.40;;;11.00;99.90;;;;;;5090770;28;20446;-49
2022/11/08 07:17:53;;;;;;;12.10;5.47;;;11.20;99.90;;;;;;5091504;28;20437;-52
2022/11/08 07:20:21;;;;;;;8.50;6.13;;;11.10;99.90;;;;;;5090611;28;20431;-49
2022/11/08 07:22:47;;;;;;;16.27;7.13;;;11.20;99.90;;;;;;5090279;28;20453;-50
2022/11/08 07:25:14;;;;;;;28.50;11.03;;;10.80;99.90;;;;;;5091570;28;20460;-49
2022/11/08 07:27:40;;;;;;;16.03;7.10;;;11.00;99.90;;;;;;5091158;28;20411;-49
2022/11/08 07:30:10;;;;;;;9.67;5.80;;;11.10;99.90;;;;;;5090678;28;20475;-49
2022/11/08 07:32:36;;;;;;;9.63;6.00;;;11.20;99.90;;;;;;5090959;28;20560;-50
2022/11/08 07:35:03;;;;;;;10.87;6.00;;;11.00;99.90;;;;;;5090881;28;20493;-48
2022/11/08 07:37:30;;;;;;;8.90;5.23;;;11.30;99.90;;;;;;5091058;28;20424;-48
2022/11/08 07:39:57;;;;;;;13.53;6.73;;;11.30;99.90;;;;;;5090315;28;20439;-50
2022/11/08 07:42:24;;;;;;;13.23;6.77;;;11.20;99.90;;;;;;5090607;28;20938;-49
2022/11/08 07:45:03;;;;;;;9.77;5.60;;;11.20;99.90;;;;;;5072217;28;20470;-49
2022/11/08 07:47:31;;;;;;;9.83;5.13;;;11.50;99.90;;;;;;5091080;28;20626;-49
2022/11/08 07:49:58;;;;;;;12.57;5.60;;;11.30;99.90;;;;;;5090681;28;20437;-50
2022/11/08 07:52:25;;;;;;;8.87;6.90;;;11.40;99.90;;;;;;5090975;28;20434;-49
2022/11/08 07:54:52;;;;;;;15.67;6.00;;;11.40;99.90;;;;;;5090764;28;20773;-50
2022/11/08 07:57:19;;;;;;;14.73;8.10;;;11.50;99.90;;;;;;5091137;28;20434;-51
2022/11/08 07:59:45;;;;;;;16.80;7.40;;;11.10;99.90;;;;;;5091068;28;20464;-49
2022/11/08 08:02:13;;;;;;;15.83;5.87;;;11.60;99.90;;;;;;5092037;28;20434;-49
2022/11/08 08:04:41;;;;;;;16.97;5.73;;;11.50;99.90;;;;;;5091399;28;20457;-50
2022/11/08 08:07:07;;;;;;;6.33;4.43;;;11.80;99.90;;;;;;5091516;28;20435;-48
2022/11/08 08:09:34;;;;;;;8.50;5.23;;;11.10;99.90;;;;;;5091308;28;20449;-51
2022/11/08 08:12:01;;;;;;;10.03;5.13;;;12.10;99.90;;;;;;5091173;28;20873;-49
2022/11/08 08:14:28;;;;;;;10.30;4.70;;;11.50;99.90;;;;;;5091185;28;20453;-48
2022/11/08 08:16:56;;;;;;;11.57;6.40;;;12.20;99.90;;;;;;5091284;28;20453;-49
2022/11/08 08:19:22;;;;;;;7.67;4.60;;;12.00;99.90;;;;;;5090482;28;20459;-49
2022/11/08 08:21:50;;;;;;;11.30;5.70;;;12.10;99.90;;;;;;5090527;28;20438;-49
2022/11/08 08:24:17;;;;;;;11.00;5.70;;;11.40;99.90;;;;;;5072741;28;20446;-48
2022/11/08 08:26:43;;;;;;;7.90;4.37;;;12.10;99.90;;;;;;5090449;28;20564;-50
2022/11/08 08:29:10;;;;;;;20.37;6.40;;;11.80;99.90;;;;;;5090451;28;20440;-49
2022/11/08 08:31:36;;;;;;;6.80;5.47;;;11.70;99.90;;;;;;5090733;28;20438;-50
2022/11/08 08:34:03;;;;;;;10.87;5.63;;;12.00;99.90;;;;;;5092226;28;20476;-50
2022/11/08 08:36:30;;;;;;;10.53;5.57;;;12.00;99.90;;;;;;5094281;28;20467;-49
2022/11/08 08:38:58;;;;;;;12.63;4.87;;;11.50;99.90;;;;;;5093821;28;20450;-48
2022/11/08 08:41:24;;;;;;;13.53;5.13;;;12.50;99.90;;;;;;5094715;28;20430;-49
2022/11/08 08:43:51;;;;;;;11.20;5.23;;;11.80;99.90;;;;;;5094180;28;20923;-50
2022/11/08 08:46:18;;;;;;;15.13;5.10;;;12.20;99.90;;;;;;5094352;28;20799;-50
2022/11/08 08:48:44;;;;;;;11.60;5.40;;;12.90;99.90;;;;;;5093451;28;20460;-49
2022/11/08 08:51:11;;;;;;;14.77;6.20;;;11.70;99.90;;;;;;5093791;28;20433;-49
2022/11/08 08:53:37;;;;;;;12.03;4.83;;;12.20;99.90;;;;;;5093715;28;20481;-50
2022/11/08 08:56:06;;;;;;;14.10;5.87;;;12.40;99.90;;;;;;5093694;28;20468;-48
2022/11/08 08:58:33;;;;;;;8.13;4.00;;;12.50;99.90;;;;;;5093588;28;20552;-49
2022/11/08 09:01:01;;;;;;;7.10;3.70;;;11.80;99.90;;;;;;5093988;28;20410;-49
2022/11/08 09:03:28;;;;;;;11.17;5.23;;;12.50;99.90;;;;;;5093931;28;20930;-50
2022/11/08 09:05:57;;;;;;;13.37;5.47;;;12.80;99.90;;;;;;5093638;28;20821;-52
2022/11/08 09:08:24;;;;;;;11.33;5.63;;;12.60;99.90;;;;;;5093437;28;20435;-49
2022/11/08 09:10:53;;;;;;;9.50;4.73;;;12.60;99.90;;;;;;5075228;28;20455;-48
2022/11/08 09:13:21;;;;;;;11.10;5.30;;;12.70;99.90;;;;;;5093570;28;20438;-49
2022/11/08 09:15:48;;;;;;;12.00;5.50;;;12.90;99.90;;;;;;5093053;28;20529;-49
2022/11/08 09:18:15;;;;;;;12.50;5.80;;;13.30;99.90;;;;;;5093551;28;20428;-50
2022/11/08 09:20:42;;;;;;;11.87;5.00;;;12.80;99.90;;;;;;5092969;28;20786;-49
2022/11/08 09:23:10;;;;;;;10.63;4.50;;;12.70;99.90;;;;;;5093521;28;20426;-51
2022/11/08 09:25:37;;;;;;;15.30;5.10;;;13.00;99.90;;;;;;5093520;28;20521;-49
2022/11/08 09:28:04;;;;;;;12.70;7.30;;;13.00;99.90;;;;;;5093380;28;20430;-49
2022/11/08 09:30:32;;;;;;;13.37;6.00;;;13.10;99.90;;;;;;5093178;28;20417;-49
2022/11/08 09:32:59;;;;;;;17.90;7.83;;;13.00;99.90;;;;;;5093579;28;20414;-49
2022/11/08 09:35:26;;;;;;;10.90;6.47;;;13.10;99.90;;;;;;5092371;28;20989;-49
2022/11/08 09:37:53;;;;;;;12.10;5.13;;;13.40;99.90;;;;;;5092261;28;20753;-49
2022/11/08 09:40:24;;;;;;;12.27;5.50;;;13.20;99.90;;;;;;5091787;28;20427;-49
2022/11/08 09:43:02;;;;;;;12.47;5.30;;;13.10;99.90;;;;;;5092278;28;20775;-50
2022/11/08 09:45:36;;;;;;;10.73;4.20;;;13.30;99.90;;;;;;5072507;28;20471;-49
2022/11/08 09:48:05;;;;;;;11.93;3.80;;;13.50;99.90;;;;;;5091915;28;20895;-50
2022/11/08 09:50:39;;;;;;;15.73;5.70;;;13.60;99.90;;;;;;5091857;28;20931;-49
2022/11/08 09:53:17;;;;;;;10.90;4.60;;;13.50;99.90;;;;;;5091711;28;21012;-49
2022/11/08 09:55:50;;;;;;;9.80;4.77;;;13.60;99.90;;;;;;5073533;28;20514;-48
2022/11/08 09:58:25;;;;;;;9.80;3.80;;;13.70;99.90;;;;;;5091704;28;20482;-49
2022/11/08 10:00:54;;;;;;;9.30;3.73;;;13.80;99.90;;;;;;5073440;28;20451;-49
2022/11/08 10:03:23;;;;;;;13.33;5.77;;;13.70;99.90;;;;;;5091591;28;20452;-49
2022/11/08 10:06:09;;;;;;;17.07;6.07;;;14.10;99.90;;;;;;5091567;28;20455;-49
2022/11/08 10:08:45;;;;;;;6.00;3.00;;;13.70;99.90;;;;;;5091783;28;20442;-50
2022/11/08 10:11:20;;;;;;;6.70;2.90;;;14.00;99.90;;;;;;5091671;28;20997;-49
2022/11/08 10:13:58;;;;;;;9.63;3.13;;;13.70;99.90;;;;;;5091789;28;20892;-49
2022/11/08 10:16:36;;;;;;;7.60;3.20;;;14.20;99.90;;;;;;5091713;28;20448;-49
2022/11/08 10:19:23;;;;;;;9.10;4.50;;;14.20;99.90;;;;;;5090688;28;20916;-49
2022/11/08 10:21:57;;;;;;;7.70;3.73;;;14.10;99.90;;;;;;5091166;28;20920;-49
2022/11/08 10:24:34;;;;;;;7.30;3.70;;;14.60;99.90;;;;;;5091501;28;20428;-50
2022/11/08 10:27:01;;;;;;;9.40;4.53;;;14.40;99.90;;;;;;5091355;28;20482;-49
2022/11/08 10:29:34;;;;;;;9.70;4.30;;;14.30;99.90;;;;;;5090720;28;20445;-50
2022/11/08 10:32:12;;;;;;;9.27;3.87;;;14.60;99.90;;;;;;5091097;28;20437;-50
2022/11/08 10:34:46;;;;;;;8.90;5.38;;;14.30;99.90;;;;;;5087160;28;1004773;-50
2022/11/08 10:37:15;;;;;;;5.70;3.50;;;14.60;99.90;;;;;;5116382;22;20856;-47
2022/11/08 10:39:48;;;;;;;20.60;12.27;;;14.70;99.90;;;;;;5091920;28;20495;-47
2022/11/08 10:42:20;;;;;;;10.63;4.23;;;14.60;99.90;;;;;;5092549;28;20436;-48
2022/11/08 10:44:47;;;;;;;6.10;4.30;;;14.50;99.90;;;;;;5092574;28;20428;-47
2022/11/08 10:47:21;;;;;;;11.80;3.80;;;15.10;99.90;;;;;;5092683;28;20453;-47
2022/11/08 10:49:47;;;;;;;7.73;3.60;;;15.00;99.90;;;;;;5092045;28;20784;-47
2022/11/08 10:52:19;;;;;;;7.80;5.43;;;14.90;99.90;;;;;;5092233;28;20463;-48
2022/11/08 10:54:48;;;;;;;10.77;4.80;;;14.80;99.90;;;;;;5092220;28;20516;-48
2022/11/08 10:57:16;;;;;;;6.70;4.10;;;14.40;99.90;;;;;;5092154;28;20453;-48
2022/11/08 10:59:44;;;;;;;5.37;3.03;;;15.00;99.90;;;;;;5092156;28;20786;-48
2022/11/08 11:02:34;;;;;;;7.20;4.43;;;14.50;99.90;;;;;;5092219;28;20433;-48
2022/11/08 11:05:24;;;;;;;7.13;2.80;;;15.20;99.90;;;;;;5086635;28;20448;-48
2022/11/08 11:08:13;;;;;;;8.80;3.40;;;14.90;99.90;;;;;;5092191;28;20444;-46
2022/11/08 11:10:42;;;;;;;8.40;3.10;;;15.10;99.90;;;;;;5088633;28;20913;-48
2022/11/08 11:13:13;;;;;;;8.70;4.60;;;14.80;99.90;;;;;;5073891;28;20452;-48
2022/11/08 11:15:45;;;;;;;9.23;3.87;;;15.00;99.90;;;;;;5092490;28;20772;-47
2022/11/08 11:18:26;;;;;;;6.90;3.47;;;15.20;99.90;;;;;;5092195;28;20463;-47
2022/11/08 11:21:02;;;;;;;8.10;3.63;;;14.70;99.90;;;;;;5092127;28;20477;-47
2022/11/08 11:23:34;;;;;;;4.60;2.90;;;15.50;99.90;;;;;;5092163;28;20440;-47
2022/11/08 11:26:03;;;;;;;6.63;2.93;;;14.90;99.90;;;;;;5091873;28;20811;-47
2022/11/08 11:28:29;;;;;;;12.47;7.20;;;14.90;99.90;;;;;;5091503;28;20440;-47
2022/11/08 11:31:00;;;;;;;6.67;3.00;;;15.20;99.90;;;;;;5073890;28;21000;-47
2022/11/08 11:33:30;;;;;;;6.33;2.70;;;15.60;99.90;;;;;;5092027;28;20425;-47
2022/11/08 11:35:59;;;;;;;4.73;2.50;;;15.50;99.90;;;;;;5091670;28;20485;-47
2022/11/08 11:38:37;;;;;;;6.50;2.30;;;15.30;99.90;;;;;;5091505;28;20532;-47
2022/11/08 11:41:09;;;;;;;4.13;2.37;;;15.20;99.90;;;;;;5091899;28;20428;-47
2022/11/08 11:43:41;;;;;;;7.97;2.47;;;15.20;99.90;;;;;;5092011;28;20765;-47
2022/11/08 11:46:15;;;;;;;5.30;2.97;;;15.20;99.90;;;;;;5091846;28;20488;-48
2022/11/08 11:48:46;;;;;;;6.33;3.07;;;15.40;99.90;;;;;;5091487;28;20428;-48
2022/11/08 11:51:14;;;;;;;3.67;2.20;;;15.10;99.90;;;;;;5091640;28;20515;-48
2022/11/08 11:53:41;;;;;;;5.73;2.97;;;15.20;99.90;;;;;;5091647;28;20965;-47
2022/11/08 11:56:33;;;;;;;6.60;2.10;;;15.40;99.90;;;;;;5091478;28;20884;-48
2022/11/08 11:59:34;;;;;;;11.40;4.00;;;15.40;99.90;;;;;;5073150;28;20441;-48
2022/11/08 12:02:25;;;;;;;5.47;2.83;;;15.10;99.90;;;;;;5091398;28;20443;-48
2022/11/08 12:05:11;;;;;;;7.43;2.90;;;15.60;99.90;;;;;;5091446;28;20432;-48
2022/11/08 12:07:45;;;;;;;6.33;2.57;;;15.30;99.90;;;;;;5091193;28;20433;-48
2022/11/08 12:10:21;;;;;;;7.50;3.20;;;15.40;99.90;;;;;;5094977;28;20485;-48
2022/11/08 12:13:00;;;;;;;8.47;3.10;;;15.80;99.90;;;;;;5077519;28;20471;-46
2022/11/08 12:15:35;;;;;;;4.77;2.97;;;15.50;99.90;;;;;;5095332;28;20491;-48
2022/11/08 12:18:18;;;;;;;19.87;3.70;;;15.60;99.90;;;;;;5095537;28;20436;-48
2022/11/08 12:20:57;;;;;;;9.20;2.57;;;15.20;99.90;;;;;;5094962;28;20515;-47
2022/11/08 12:23:43;;;;;;;6.43;3.07;;;15.70;99.90;;;;;;5095311;28;20436;-48
2022/11/08 12:26:19;;;;;;;4.83;2.87;;;15.80;99.90;;;;;;5095236;28;20456;-47
2022/11/08 12:28:57;;;;;;;10.00;4.00;;;15.70;99.90;;;;;;5094924;28;20452;-47
2022/11/08 12:31:29;;;;;;;4.87;2.50;;;15.70;99.90;;;;;;5095046;28;20432;-47
2022/11/08 12:34:06;;;;;;;8.30;2.20;;;15.70;99.90;;;;;;5095062;28;20451;-48
2022/11/08 12:36:42;;;;;;;8.33;3.10;;;15.90;99.90;;;;;;5094879;28;20563;-48
2022/11/08 12:39:21;;;;;;;9.67;3.17;;;15.80;99.90;;;;;;5076080;28;20448;-47
2022/11/08 12:41:56;;;;;;;6.20;2.30;;;15.60;99.90;;;;;;5094827;28;20440;-47
2022/11/08 12:44:55;;;;;;;7.57;2.60;;;15.80;99.90;;;;;;5094820;28;20437;-48
2022/11/08 12:47:33;;;;;;;8.03;3.13;;;15.90;99.90;;;;;;5094385;28;20458;-48
2022/11/08 12:50:12;;;;;;;5.90;2.23;;;15.90;99.90;;;;;;5094113;28;20945;-47
2022/11/08 12:52:52;;;;;;;8.27;2.43;;;16.20;99.90;;;;;;5094814;28;20523;-48
2022/11/08 12:55:24;;;;;;;4.07;2.27;;;15.60;99.90;;;;;;5094479;28;20459;-47
2022/11/08 12:57:53;;;;;;;11.10;3.43;;;16.30;99.90;;;;;;5094622;28;20463;-48
2022/11/08 13:00:20;;;;;;;10.80;4.40;;;15.80;99.90;;;;;;5075907;28;20443;-48
2022/11/08 13:03:00;;;;;;;5.13;2.43;;;16.40;99.90;;;;;;5094754;28;20510;-47
2022/11/08 13:05:32;;;;;;;3.73;2.20;;;16.00;99.90;;;;;;5094399;28;20453;-48
2022/11/08 13:08:06;;;;;;;4.93;1.83;;;16.10;99.90;;;;;;5094194;28;20439;-48
2022/11/08 13:10:42;;;;;;;6.10;2.57;;;16.00;99.90;;;;;;5094283;28;20444;-47
2022/11/08 13:13:22;;;;;;;7.17;4.70;;;16.20;99.90;;;;;;5076375;28;20457;-48
2022/11/08 13:16:13;;;;;;;7.00;3.23;;;16.10;99.90;;;;;;5093798;28;20504;-49
2022/11/08 13:18:45;;;;;;;4.47;2.70;;;16.10;99.90;;;;;;5094360;28;20430;-47